createdAt,value
2019-02-21T00:02:02.016Z,12.47
2019-02-21T00:04:30.417Z,12.73
2019-02-21T00:06:58.823Z,12.50
2019-02-21T00:09:27.228Z,12.23
2019-02-21T00:11:55.631Z,12.53
2019-02-21T00:14:24.026Z,12.00
2019-02-21T00:16:52.428Z,12.20
2019-02-21T00:19:20.835Z,12.17
2019-02-21T00:21:49.234Z,12.70
2019-02-21T00:24:17.664Z,12.10
2019-02-21T00:26:46.139Z,12.57
2019-02-21T00:29:14.553Z,11.67
2019-02-21T00:31:42.961Z,12.40
2019-02-21T00:34:11.422Z,12.67
2019-02-21T00:36:39.819Z,13.73
2019-02-21T00:39:08.312Z,13.67
2019-02-21T00:41:36.711Z,13.33
2019-02-21T00:44:05.378Z,13.70
2019-02-21T00:46:33.832Z,13.73
2019-02-21T00:49:02.235Z,14.33
2019-02-21T00:51:30.636Z,14.40
2019-02-21T00:53:59.041Z,14.30
2019-02-21T00:56:27.438Z,14.17
2019-02-21T00:58:55.841Z,14.30
2019-02-21T01:01:24.292Z,15.13
2019-02-21T01:03:52.694Z,14.27
2019-02-21T01:06:21.115Z,14.10
2019-02-21T01:08:49.551Z,14.20
2019-02-21T01:11:17.949Z,14.13
2019-02-21T01:13:46.674Z,13.97
2019-02-21T01:16:15.077Z,13.80
2019-02-21T01:18:43.487Z,13.67
2019-02-21T01:21:11.908Z,13.63
2019-02-21T01:23:40.321Z,13.77
2019-02-21T01:26:08.716Z,14.27
2019-02-21T01:28:37.119Z,13.83
2019-02-21T01:31:05.523Z,13.87
2019-02-21T01:33:33.955Z,14.43
2019-02-21T01:36:02.367Z,14.50
2019-02-21T01:38:30.783Z,14.57
2019-02-21T01:40:59.192Z,14.83
2019-02-21T01:43:27.600Z,14.00
2019-02-21T01:45:56.072Z,13.87
2019-02-21T01:48:24.473Z,13.53
2019-02-21T01:50:52.877Z,12.90
2019-02-21T01:53:21.284Z,13.43
2019-02-21T01:55:49.692Z,13.60
2019-02-21T01:58:18.179Z,13.83
2019-02-21T02:00:46.651Z,14.07
2019-02-21T02:03:15.051Z,13.50
2019-02-21T02:05:43.457Z,13.17
2019-02-21T02:08:11.853Z,13.20
2019-02-21T02:10:40.256Z,13.00
2019-02-21T02:13:08.646Z,13.67
2019-02-21T02:15:37.101Z,13.03
2019-02-21T02:18:05.512Z,14.13
2019-02-21T02:20:33.899Z,13.30
2019-02-21T02:23:02.300Z,13.33
2019-02-21T02:25:30.721Z,13.83
2019-02-21T02:27:59.116Z,13.90
2019-02-21T02:30:27.601Z,14.70
2019-02-21T02:32:55.996Z,13.20
2019-02-21T02:35:24.394Z,14.40
2019-02-21T02:37:52.796Z,13.23
2019-02-21T02:40:21.198Z,13.70
2019-02-21T02:42:49.604Z,14.37
2019-02-21T02:45:18.003Z,14.33
2019-02-21T02:47:46.412Z,15.13
2019-02-21T02:50:14.804Z,15.33
2019-02-21T02:52:43.215Z,14.17
2019-02-21T02:55:11.628Z,15.00
2019-02-21T02:57:40.027Z,15.20
2019-02-21T03:00:11.569Z,15.33
2019-02-21T03:02:39.975Z,15.67
2019-02-21T03:05:08.513Z,16.40
2019-02-21T03:07:36.914Z,15.27
2019-02-21T03:10:08.528Z,15.47
2019-02-21T03:12:36.930Z,15.97
2019-02-21T03:15:07.285Z,16.27
2019-02-21T03:17:35.683Z,16.70
2019-02-21T03:20:05.029Z,16.90
2019-02-21T03:22:33.454Z,16.60
2019-02-21T03:25:01.840Z,16.53
2019-02-21T03:27:30.326Z,16.60
2019-02-21T03:29:58.719Z,16.33
2019-02-21T03:32:27.793Z,17.70
2019-02-21T03:34:56.215Z,16.70
2019-02-21T03:37:24.625Z,16.33
2019-02-21T03:39:53.024Z,16.47
2019-02-21T03:42:21.458Z,15.77
2019-02-21T03:44:49.877Z,16.13
2019-02-21T03:47:18.280Z,16.17
2019-02-21T03:49:46.684Z,16.40
2019-02-21T03:52:15.124Z,16.50
2019-02-21T03:54:43.522Z,16.77
2019-02-21T03:57:11.940Z,16.93
2019-02-21T03:59:40.544Z,17.60
2019-02-21T04:02:08.976Z,16.77
2019-02-21T04:04:37.356Z,15.90
2019-02-21T04:07:05.840Z,16.77
2019-02-21T04:09:34.244Z,16.10
2019-02-21T04:12:02.631Z,16.93
2019-02-21T04:14:31.874Z,17.27
2019-02-21T04:17:00.280Z,17.90
2019-02-21T04:19:28.769Z,16.27
2019-02-21T04:21:57.238Z,16.33
2019-02-21T04:24:25.655Z,16.97
2019-02-21T04:26:54.145Z,16.67
2019-02-21T04:29:22.590Z,16.40
2019-02-21T04:31:51.039Z,15.80
2019-02-21T04:34:19.439Z,17.13
2019-02-21T04:36:47.841Z,17.17
2019-02-21T04:39:16.256Z,16.53
2019-02-21T04:41:44.662Z,16.60
2019-02-21T04:44:13.063Z,16.00
2019-02-21T04:46:41.447Z,16.27
2019-02-21T04:49:09.857Z,16.60
2019-02-21T04:51:38.278Z,16.23
2019-02-21T04:54:06.676Z,15.97
2019-02-21T04:56:35.067Z,15.87
2019-02-21T04:59:05.884Z,16.20
2019-02-21T05:01:33.634Z,16.97
2019-02-21T05:04:04.600Z,16.40
2019-02-21T05:06:32.249Z,16.60
2019-02-21T05:09:00.642Z,16.87
2019-02-21T05:11:29.032Z,17.13
2019-02-21T05:13:57.458Z,16.80
2019-02-21T05:16:25.848Z,16.80
2019-02-21T05:18:54.434Z,16.77
2019-02-21T05:21:23.039Z,16.83
2019-02-21T05:23:51.448Z,16.33
2019-02-21T05:26:22.268Z,16.63
2019-02-21T05:28:50.675Z,17.10
2019-02-21T05:31:30.963Z,16.37
2019-02-21T05:34:01.012Z,17.63
2019-02-21T05:36:33.638Z,17.57
2019-02-21T05:39:03.680Z,17.20
2019-02-21T05:41:36.507Z,16.83
2019-02-21T05:44:24.368Z,17.63
2019-02-21T05:47:12.486Z,17.33
2019-02-21T05:49:45.468Z,17.33
2019-02-21T05:52:24.342Z,17.63
2019-02-21T05:54:54.390Z,17.33
2019-02-21T05:57:36.988Z,17.73
2019-02-21T06:00:18.134Z,17.30
2019-02-21T06:02:53.396Z,17.80
2019-02-21T06:05:19.916Z,17.33
2019-02-21T06:08:01.712Z,17.50
2019-02-21T06:10:40.759Z,17.23
2019-02-21T06:13:22.811Z,16.97
2019-02-21T06:15:58.755Z,17.57
2019-02-21T06:18:40.718Z,18.27
2019-02-21T06:21:10.777Z,16.83
2019-02-21T06:23:49.576Z,18.10
2019-02-21T06:26:19.627Z,17.37
2019-02-21T06:28:49.679Z,18.67
2019-02-21T06:31:18.164Z,18.10
2019-02-21T06:33:46.566Z,18.50
2019-02-21T06:36:14.966Z,17.73
2019-02-21T06:38:43.364Z,17.63
2019-02-21T06:41:11.816Z,18.27
2019-02-21T06:43:40.297Z,19.30
2019-02-21T06:46:08.694Z,18.33
2019-02-21T06:48:37.089Z,19.27
2019-02-21T06:51:05.514Z,19.20
2019-02-21T06:53:33.953Z,19.50
2019-02-21T06:56:02.352Z,19.20
2019-02-21T06:58:30.774Z,18.53
2019-02-21T07:00:59.183Z,20.20
2019-02-21T07:03:29.068Z,19.43
2019-02-21T07:05:57.670Z,18.60
2019-02-21T07:08:26.078Z,19.33
2019-02-21T07:11:05.512Z,19.13
2019-02-21T07:13:26.854Z,18.77
2019-02-21T07:15:54.783Z,20.63
2019-02-21T07:18:23.172Z,19.73
2019-02-21T07:20:51.573Z,19.70
2019-02-21T07:23:20.424Z,20.10
2019-02-21T07:25:51.030Z,19.80
2019-02-21T07:28:19.446Z,19.70
2019-02-21T07:30:48.547Z,20.00
2019-02-21T07:33:27.801Z,20.20
2019-02-21T07:35:47.114Z,20.33
2019-02-21T07:38:17.202Z,20.60
2019-02-21T07:40:45.803Z,20.43
2019-02-21T07:43:14.272Z,20.33
2019-02-21T07:45:42.655Z,20.10
2019-02-21T07:48:11.102Z,21.90
2019-02-21T07:50:39.501Z,21.27
2019-02-21T07:53:07.892Z,21.33
2019-02-21T07:55:36.314Z,21.43
2019-02-21T07:58:04.785Z,21.53
2019-02-21T08:00:33.177Z,21.77
2019-02-21T08:03:01.916Z,22.50
2019-02-21T08:05:30.410Z,21.43
2019-02-21T08:07:58.808Z,22.53
2019-02-21T08:10:33.617Z,21.23
2019-02-21T08:12:57.406Z,22.33
2019-02-21T08:15:27.625Z,21.50
2019-02-21T08:17:56.092Z,21.50
2019-02-21T08:20:33.583Z,20.60
2019-02-21T08:22:54.640Z,19.93
2019-02-21T08:25:23.095Z,20.57
2019-02-21T08:27:51.504Z,20.20
2019-02-21T08:30:19.918Z,20.53
2019-02-21T08:33:03.203Z,20.47
2019-02-21T08:35:31.646Z,20.67
2019-02-21T08:38:00.082Z,19.30
2019-02-21T08:40:28.511Z,20.63
2019-02-21T08:42:56.928Z,20.10
2019-02-21T08:45:25.333Z,20.63
2019-02-21T08:47:53.753Z,19.93
2019-02-21T08:50:22.569Z,21.00
2019-02-21T08:52:51.029Z,21.97
2019-02-21T08:55:19.532Z,22.00
2019-02-21T08:57:47.936Z,21.43
2019-02-21T09:00:16.810Z,21.57
2019-02-21T09:02:45.222Z,22.33
2019-02-21T09:05:14.161Z,21.77
2019-02-21T09:07:42.652Z,21.83
2019-02-21T09:10:12.291Z,22.37
2019-02-21T09:12:40.845Z,22.07
2019-02-21T09:15:12.288Z,22.30
2019-02-21T09:17:40.707Z,22.40
2019-02-21T09:20:10.589Z,22.27
2019-02-21T09:22:39.021Z,23.73
2019-02-21T09:25:10.069Z,22.77
2019-02-21T09:27:38.488Z,22.70
2019-02-21T09:30:10.003Z,23.00
2019-02-21T09:32:38.436Z,23.00
2019-02-21T09:35:07.291Z,23.57
2019-02-21T09:37:35.712Z,23.17
2019-02-21T09:40:06.576Z,22.70
2019-02-21T09:42:35.121Z,22.93
2019-02-21T09:45:04.560Z,23.53
2019-02-21T09:47:33.005Z,23.67
2019-02-21T09:50:01.534Z,23.20
2019-02-21T09:52:29.957Z,23.23
2019-02-21T09:54:58.357Z,23.43
2019-02-21T09:57:26.781Z,24.43
2019-02-21T09:59:55.179Z,25.67
2019-02-21T10:02:23.584Z,25.63
2019-02-21T10:04:52.000Z,24.23
2019-02-21T10:07:20.419Z,26.07
2019-02-21T10:09:48.828Z,25.77
2019-02-21T10:12:17.491Z,26.07
2019-02-21T10:14:45.943Z,25.70
2019-02-21T10:17:14.337Z,25.47
2019-02-21T10:19:42.748Z,27.47
2019-02-21T10:22:11.213Z,25.77
2019-02-21T10:24:39.616Z,26.57
2019-02-21T10:27:08.039Z,26.17
2019-02-21T10:29:36.464Z,26.67
2019-02-21T10:32:04.951Z,27.30
2019-02-21T10:34:42.753Z,26.73
2019-02-21T10:37:03.492Z,26.77
2019-02-21T10:39:31.892Z,27.53
2019-02-21T10:42:00.318Z,26.10
2019-02-21T10:44:28.736Z,27.93
2019-02-21T10:46:57.162Z,26.47
2019-02-21T10:49:25.651Z,25.17
2019-02-21T10:51:54.058Z,24.90
2019-02-21T10:54:22.469Z,26.73
2019-02-21T10:56:50.884Z,26.03
2019-02-21T10:59:19.302Z,24.77
2019-02-21T11:01:47.703Z,25.97
2019-02-21T11:04:16.139Z,27.17
2019-02-21T11:06:44.556Z,25.50
2019-02-21T11:09:20.776Z,25.67
2019-02-21T11:11:49.195Z,25.47
2019-02-21T11:14:17.600Z,23.83
2019-02-21T11:16:46.024Z,25.60
2019-02-21T11:19:14.811Z,23.73
2019-02-21T11:21:43.270Z,22.97
2019-02-21T11:24:11.659Z,23.43
2019-02-21T11:26:40.066Z,21.83
2019-02-21T11:29:08.476Z,22.13
2019-02-21T11:31:37.058Z,21.93
2019-02-21T11:34:05.464Z,21.60
2019-02-21T11:36:33.864Z,22.47
2019-02-21T11:39:02.274Z,21.03
2019-02-21T11:41:30.871Z,21.93
2019-02-21T11:43:59.364Z,19.87
2019-02-21T11:46:27.772Z,18.53
2019-02-21T11:48:56.183Z,18.87
2019-02-21T11:51:24.582Z,18.63
2019-02-21T11:53:52.986Z,18.87
2019-02-21T11:56:21.386Z,20.07
2019-02-21T11:58:49.802Z,19.17
2019-02-21T12:01:18.223Z,19.40
2019-02-21T12:03:47.905Z,18.27
2019-02-21T12:06:16.372Z,19.90
2019-02-21T12:08:45.001Z,18.87
2019-02-21T12:11:13.410Z,17.43
2019-02-21T12:13:41.925Z,18.37
2019-02-21T12:16:10.834Z,17.83
2019-02-21T12:18:39.248Z,17.00
2019-02-21T12:21:07.663Z,15.50
2019-02-21T12:23:36.067Z,14.47
2019-02-21T12:26:04.543Z,13.57
2019-02-21T12:28:33.024Z,14.23
2019-02-21T12:31:01.428Z,14.70
2019-02-21T12:33:29.846Z,15.67
2019-02-21T12:35:59.507Z,15.67
2019-02-21T12:38:28.068Z,15.80
2019-02-21T12:40:56.491Z,14.90
2019-02-21T12:43:24.900Z,14.70
2019-02-21T12:45:56.391Z,17.03
2019-02-21T12:48:24.799Z,14.50
2019-02-21T12:50:53.209Z,15.20
2019-02-21T12:53:21.616Z,14.87
2019-02-21T12:55:50.016Z,14.47
2019-02-21T12:58:18.450Z,13.80
2019-02-21T13:00:46.857Z,12.57
2019-02-21T13:03:15.245Z,11.70
2019-02-21T13:05:44.644Z,11.80
2019-02-21T13:08:13.160Z,12.33
2019-02-21T13:10:41.584Z,11.23
2019-02-21T13:13:09.992Z,11.43
2019-02-21T13:15:38.416Z,12.40
2019-02-21T13:18:15.333Z,12.50
2019-02-21T13:20:36.936Z,13.30
2019-02-21T13:23:05.473Z,12.27
2019-02-21T13:25:33.864Z,12.40
2019-02-21T13:28:02.261Z,12.07
2019-02-21T13:30:30.709Z,11.90
2019-02-21T13:32:59.443Z,12.90
2019-02-21T13:35:29.402Z,13.17
2019-02-21T13:37:57.839Z,13.40
2019-02-21T13:40:26.265Z,14.00
2019-02-21T13:42:54.679Z,13.20
2019-02-21T13:45:23.097Z,13.87
2019-02-21T13:47:51.501Z,13.57
2019-02-21T13:50:20.694Z,13.30
2019-02-21T13:52:49.128Z,13.67
2019-02-21T13:55:17.546Z,13.57
2019-02-21T13:57:45.977Z,12.73
2019-02-21T14:00:17.023Z,13.23
2019-02-21T14:02:45.445Z,12.23
2019-02-21T14:05:14.343Z,11.53
2019-02-21T14:07:42.747Z,12.40
2019-02-21T14:10:13.013Z,12.00
2019-02-21T14:12:41.434Z,11.27
2019-02-21T14:15:15.536Z,10.87
2019-02-21T14:17:46.481Z,9.93
2019-02-21T14:20:14.219Z,11.27
2019-02-21T14:22:42.640Z,11.17
2019-02-21T14:25:11.405Z,11.17
2019-02-21T14:27:39.817Z,11.37
2019-02-21T14:30:11.573Z,11.53
2019-02-21T14:32:40.009Z,12.07
2019-02-21T14:35:11.355Z,12.70
2019-02-21T14:37:39.759Z,13.93
2019-02-21T14:40:12.407Z,12.83
2019-02-21T14:42:41.180Z,13.20
2019-02-21T14:45:15.060Z,13.45
2019-02-21T14:47:43.458Z,11.83
2019-02-21T14:50:12.511Z,11.67
2019-02-21T14:52:40.992Z,12.33
2019-02-21T14:55:11.922Z,13.00
2019-02-21T14:57:41.415Z,11.67
2019-02-21T15:00:13.574Z,12.90
2019-02-21T15:02:42.004Z,12.47
2019-02-21T15:05:10.469Z,11.60
2019-02-21T15:07:38.892Z,11.80
2019-02-21T15:10:09.246Z,12.10
2019-02-21T15:12:37.648Z,11.70
2019-02-21T15:15:11.284Z,11.20
2019-02-21T15:17:39.700Z,11.60
2019-02-21T15:20:10.648Z,11.27
2019-02-21T15:22:39.059Z,11.97
2019-02-21T15:25:08.831Z,10.67
2019-02-21T15:27:37.236Z,9.57
2019-02-21T15:30:22.391Z,8.93
2019-02-21T15:32:50.792Z,8.30
2019-02-21T15:35:19.723Z,8.30
2019-02-21T15:37:48.961Z,7.90
2019-02-21T15:40:17.460Z,7.63
2019-02-21T15:42:45.867Z,7.80
2019-02-21T15:45:26.624Z,8.00
2019-02-21T15:47:55.096Z,8.60
2019-02-21T15:50:23.788Z,8.93
2019-02-21T15:52:54.135Z,8.67
2019-02-21T15:55:22.979Z,8.73
2019-02-21T15:58:00.540Z,9.03
2019-02-21T16:00:24.156Z,9.20
2019-02-21T16:02:52.598Z,8.60
2019-02-21T16:05:21.068Z,8.90
2019-02-21T16:07:49.502Z,8.90
2019-02-21T16:10:27.949Z,8.57
2019-02-21T16:12:57.681Z,8.60
2019-02-21T16:15:26.239Z,8.57
2019-02-21T16:17:56.243Z,9.73
2019-02-21T16:20:24.631Z,10.30
2019-02-21T16:22:53.039Z,9.90
2019-02-21T16:25:23.400Z,10.23
2019-02-21T16:27:51.847Z,10.03
2019-02-21T16:30:22.002Z,10.50
2019-02-21T16:32:50.401Z,10.57
2019-02-21T16:35:20.298Z,10.03
2019-02-21T16:37:48.710Z,11.27
2019-02-21T16:40:20.496Z,10.57
2019-02-21T16:42:48.926Z,10.67
2019-02-21T16:45:19.746Z,10.87
2019-02-21T16:47:48.152Z,10.27
2019-02-21T16:50:16.687Z,10.83
2019-02-21T16:52:45.173Z,11.70
2019-02-21T16:55:18.708Z,11.03
2019-02-21T16:57:47.368Z,11.77
2019-02-21T17:00:20.692Z,11.40
2019-02-21T17:02:49.172Z,11.77
2019-02-21T17:05:17.650Z,11.90
2019-02-21T17:07:46.047Z,12.77
2019-02-21T17:10:15.899Z,12.33
2019-02-21T17:12:44.388Z,13.37
2019-02-21T17:15:19.296Z,13.03
2019-02-21T17:17:47.720Z,13.73
2019-02-21T17:20:21.568Z,13.60
2019-02-21T17:22:49.996Z,13.17
2019-02-21T17:25:18.455Z,14.20
2019-02-21T17:27:47.395Z,14.70
2019-02-21T17:30:17.052Z,13.93
2019-02-21T17:32:48.861Z,14.90
2019-02-21T17:35:17.818Z,14.07
2019-02-21T17:37:46.235Z,13.93
2019-02-21T17:40:24.967Z,14.90
2019-02-21T17:42:53.388Z,14.57
2019-02-21T17:45:22.342Z,14.90
2019-02-21T17:47:50.862Z,15.03
2019-02-21T17:50:19.990Z,15.37
2019-02-21T17:52:48.407Z,15.00
2019-02-21T17:55:17.531Z,16.33
2019-02-21T17:57:46.081Z,16.40
2019-02-21T18:00:29.018Z,16.37
2019-02-21T18:02:57.445Z,15.60
2019-02-21T18:05:25.847Z,16.57
2019-02-21T18:07:54.272Z,17.27
2019-02-21T18:10:22.705Z,17.47
2019-02-21T18:12:51.097Z,17.60
2019-02-21T18:15:19.826Z,17.23
2019-02-21T18:17:48.221Z,17.97
2019-02-21T18:20:17.081Z,18.67
2019-02-21T18:22:45.487Z,20.07
2019-02-21T18:25:23.391Z,21.17
2019-02-21T18:27:51.800Z,21.73
2019-02-21T18:30:20.296Z,22.77
2019-02-21T18:32:48.719Z,23.00
2019-02-21T18:35:17.134Z,22.47
2019-02-21T18:37:47.706Z,21.97
2019-02-21T18:40:21.285Z,20.97
2019-02-21T18:42:49.853Z,22.80
2019-02-21T18:45:18.324Z,21.63
2019-02-21T18:47:46.721Z,21.30
2019-02-21T18:50:15.477Z,22.17
2019-02-21T18:52:44.060Z,22.20
2019-02-21T18:55:13.298Z,21.27
2019-02-21T18:57:41.732Z,21.27
2019-02-21T19:00:16.840Z,21.53
2019-02-21T19:02:45.246Z,21.43
2019-02-21T19:05:13.658Z,20.70
2019-02-21T19:07:42.135Z,21.10
2019-02-21T19:10:13.536Z,21.23
2019-02-21T19:12:42.005Z,20.97
2019-02-21T19:15:11.858Z,20.33
2019-02-21T19:17:40.268Z,22.10
2019-02-21T19:20:16.956Z,21.07
2019-02-21T19:22:46.824Z,21.83
2019-02-21T19:25:15.393Z,21.40
2019-02-21T19:27:43.956Z,23.67
2019-02-21T19:30:27.305Z,24.30
2019-02-21T19:32:55.711Z,29.17
2019-02-21T19:35:24.467Z,33.00
2019-02-21T19:37:52.862Z,33.67
2019-02-21T19:40:21.287Z,34.67
2019-02-21T19:42:49.718Z,33.93
2019-02-21T19:45:18.287Z,32.90
2019-02-21T19:47:46.692Z,32.53
2019-02-21T19:50:15.130Z,32.60
2019-02-21T19:52:43.608Z,33.37
2019-02-21T19:55:12.535Z,32.83
2019-02-21T19:57:41.123Z,33.87
2019-02-21T20:00:13.105Z,33.40
2019-02-21T20:02:41.509Z,34.17
2019-02-21T20:05:10.244Z,34.03
2019-02-21T20:07:38.722Z,35.13
2019-02-21T20:10:08.567Z,41.03
2019-02-21T20:12:36.980Z,43.77
2019-02-21T20:15:07.931Z,44.63
2019-02-21T20:17:36.320Z,44.23
2019-02-21T20:20:17.208Z,46.33
2019-02-21T20:22:45.643Z,47.93
2019-02-21T20:25:14.050Z,47.33
2019-02-21T20:27:42.472Z,47.20
2019-02-21T20:30:20.171Z,45.83
2019-02-21T20:32:48.632Z,47.33
2019-02-21T20:35:17.356Z,45.83
2019-02-21T20:37:45.764Z,48.60
2019-02-21T20:40:14.908Z,46.87
2019-02-21T20:42:43.325Z,49.47
2019-02-21T20:45:15.284Z,50.90
2019-02-21T20:47:44.003Z,50.90
2019-02-21T20:50:12.767Z,50.93
2019-02-21T20:52:41.403Z,50.30
2019-02-21T20:55:12.818Z,53.83
2019-02-21T20:57:41.224Z,52.80
2019-02-21T21:00:18.285Z,51.07
2019-02-21T21:02:46.768Z,52.27
2019-02-21T21:05:15.304Z,51.63
2019-02-21T21:07:43.781Z,50.90
2019-02-21T21:10:14.295Z,50.63
2019-02-21T21:12:42.684Z,49.17
2019-02-21T21:15:13.823Z,51.13
2019-02-21T21:17:42.225Z,49.43
2019-02-21T21:20:16.809Z,48.43
2019-02-21T21:22:44.937Z,49.50
2019-02-21T21:25:15.779Z,48.17
2019-02-21T21:27:44.259Z,48.10
2019-02-21T21:30:14.634Z,46.53
2019-02-21T21:32:43.123Z,47.13
2019-02-21T21:35:11.927Z,46.03
2019-02-21T21:37:40.342Z,44.73
2019-02-21T21:40:11.822Z,45.57
2019-02-21T21:42:40.226Z,43.70
2019-02-21T21:45:14.286Z,43.73
2019-02-21T21:47:42.746Z,42.27
2019-02-21T21:50:13.698Z,42.50
2019-02-21T21:52:42.095Z,43.80
2019-02-21T21:55:10.647Z,42.13
2019-02-21T21:57:39.059Z,42.57
2019-02-21T22:00:18.056Z,44.47
2019-02-21T22:02:46.782Z,45.30
2019-02-21T22:05:15.276Z,44.67
2019-02-21T22:07:43.697Z,45.00
2019-02-21T22:10:15.842Z,45.03
2019-02-21T22:12:44.455Z,47.70
2019-02-21T22:15:18.320Z,48.43
2019-02-21T22:17:46.727Z,46.83
2019-02-21T22:20:15.133Z,47.53
2019-02-21T22:22:43.564Z,48.43
2019-02-21T22:25:13.204Z,46.00
2019-02-21T22:27:41.612Z,45.93
2019-02-21T22:30:16.144Z,46.93
2019-02-21T22:32:44.569Z,44.57
2019-02-21T22:35:12.964Z,42.53
2019-02-21T22:37:41.447Z,43.87
2019-02-21T22:40:17.446Z,40.50
2019-02-21T22:42:45.865Z,41.70
2019-02-21T22:45:14.423Z,41.37
2019-02-21T22:47:42.914Z,41.80
2019-02-21T22:50:16.091Z,41.10
2019-02-21T22:52:44.560Z,39.33
2019-02-21T22:55:13.039Z,38.70
2019-02-21T22:57:41.458Z,39.30
2019-02-21T23:00:26.729Z,40.03
2019-02-21T23:02:55.605Z,39.67
2019-02-21T23:05:58.561Z,40.17
2019-02-21T23:08:42.103Z,39.40
2019-02-21T23:11:10.602Z,39.03
2019-02-21T23:13:39.151Z,38.83
2019-02-21T23:16:07.644Z,39.13
2019-02-21T23:18:36.211Z,39.47
2019-02-21T23:21:04.748Z,39.50
2019-02-21T23:23:33.159Z,38.97
2019-02-21T23:26:01.580Z,38.77
2019-02-21T23:28:30.019Z,38.03
2019-02-21T23:30:58.425Z,39.33
2019-02-21T23:33:27.711Z,39.10
2019-02-21T23:35:56.119Z,38.53
2019-02-21T23:38:24.537Z,38.67
2019-02-21T23:40:52.933Z,37.93
2019-02-21T23:43:21.378Z,38.60
2019-02-21T23:45:49.848Z,37.77
2019-02-21T23:48:18.278Z,38.20
2019-02-21T23:50:46.714Z,39.13
2019-02-21T23:53:15.125Z,39.53
2019-02-21T23:55:43.542Z,38.40
2019-02-21T23:58:11.970Z,38.73
